Llano — WDF9589 — position and weather

sailwx.info

Track history (hours):
 
Tides and Currents Weather Stations Pressure Air Temp Water Temp Dewpoint Dewpoint Depression Visibility Wind Speed Wind Dir Waves Ship Positions

Llano

Owner: Kirby Inland Marine LP, Houton, TX. More information available from US FCC via Universal Licensing System and Coast Guard Vessel Documentation Center.

Last reported at 2018-Jun-16 22:43 UTC. Time now 2018-Jun-18 22:39 UTC.
Position N 29°42' W 095°01'.

Length 210 m; draft 3.5 m.

Type: . MMSI: 367506740.

Date/timePositionNaut miles runAvg speedWind from/ knotsBaromVisibWave heightAir tempDewpointWater temp
2018-Jun-16 22:43N 29°42' W 095°01'1 4.3
2018-Jun-16 22:26N 29°42' W 094°60'4 8.6
2018-Jun-16 21:59N 29°38' W 094°58'17 9.2
2018-Jun-16 20:07N 29°23' W 094°49'1 8.5
2018-Jun-16 20:00N 29°22' W 094°48'2 3.3
2018-Jun-16 19:23N 29°23' W 094°46'1 2.4
2018-Jun-16 18:52N 29°24' W 094°45'15 5.5
2018-Jun-16 16:07N 29°31' W 094°29'2 5.5
2018-Jun-16 15:40N 29°33' W 094°28'1 4.8
2018-Jun-16 15:29N 29°34' W 094°27'2 4.0
2018-Jun-16 15:00N 29°35' W 094°25'2 3.5
2018-Jun-16 14:30N 29°36' W 094°23'2 3.0
2018-Jun-16 13:58N 29°36' W 094°22'1 3.0
2018-Jun-16 13:30N 29°37' W 094°20'3 5.6
2018-Jun-16 13:00N 29°38' W 094°17'3 5.9
2018-Jun-16 12:30N 29°40' W 094°14'3 6.2
2018-Jun-16 12:00N 29°41' W 094°11'3 6.3
2018-Jun-16 11:30N 29°42' W 094°08'3 6.5
2018-Jun-16 11:00N 29°45' W 094°05'4 7.0
2018-Jun-16 10:30N 29°47' W 094°02'3 6.5
2018-Jun-16 10:00N 29°49' W 093°59'2 4.9
2018-Jun-16 09:30N 29°51' W 093°57'4 7.6
2018-Jun-16 08:59N 29°54' W 093°54'5 9.5
2018-Jun-16 08:30N 29°58' W 093°51'3 6.0
2018-Jun-16 08:00N 29°59' W 093°48'4 8.7
2018-Jun-16 07:30N 30°02' W 093°44'4 7.4
2018-Jun-16 07:00N 30°04' W 093°41'4 7.2
2018-Jun-16 06:30N 30°04' W 093°37'3 5.8
2018-Jun-16 06:00N 30°04' W 093°33'3 5.6
2018-Jun-16 05:30N 30°04' W 093°30'3 5.7
2018-Jun-16 04:59N 30°04' W 093°27'2 5.0
2018-Jun-16 04:30N 30°04' W 093°24'2 3.0
2018-Jun-16 04:00N 30°04' W 093°22'2 3.4
2018-Jun-16 03:30N 30°04' W 093°20'2 3.9
2018-Jun-16 03:00N 30°06' W 093°19'1 2.9
2018-Jun-16 02:30N 30°05' W 093°18'1 1.9
2018-Jun-16 02:00N 30°05' W 093°17'0 0.9
2018-Jun-16 01:30N 30°04' W 093°16'1 1.2
2018-Jun-16 01:00N 30°04' W 093°16'0 0.2
2018-Jun-16 00:30N 30°04' W 093°16'0 0.1
2018-Jun-15 23:59N 30°04' W 093°16'0 0.1
2018-Jun-15 23:30N 30°04' W 093°16'0 0.0
2018-Jun-15 23:00N 30°04' W 093°16'0 0.4
2018-Jun-15 22:30N 30°03' W 093°16'0 1.0
2018-Jun-15 22:00N 30°03' W 093°16'0 0.1
2018-Jun-15 21:30N 30°03' W 093°16'0 0.1
2018-Jun-15 21:00N 30°03' W 093°16'0 0.2
2018-Jun-15 20:30N 30°03' W 093°16'0 0.0
2018-Jun-15 20:00N 30°03' W 093°16'0 0.0
2018-Jun-15 19:30N 30°03' W 093°16'0 0.0
2018-Jun-15 19:00N 30°03' W 093°16'0 0.1
2018-Jun-15 18:30N 30°03' W 093°16'0 0.0
2018-Jun-15 18:00N 30°03' W 093°16'0 0.0
2018-Jun-15 17:30N 30°03' W 093°16'0 0.0
2018-Jun-15 17:00N 30°03' W 093°16'0 0.0
2018-Jun-15 16:29N 30°03' W 093°16'0 0.0
2018-Jun-15 16:00N 30°03' W 093°16'0 0.0
2018-Jun-15 15:30N 30°03' W 093°16'0 0.2
2018-Jun-15 15:00N 30°03' W 093°16'2 3.2
2018-Jun-15 14:30N 30°02' W 093°14'2 4.3
2018-Jun-15 14:00N 29°60' W 093°13'0 0.1
2018-Jun-15 13:30N 29°60' W 093°13'0 0.0
2018-Jun-15 13:00N 29°60' W 093°13'0 0.0
2018-Jun-15 12:30N 29°60' W 093°13'0 0.0
2018-Jun-15 11:59N 29°60' W 093°13'0 0.0
2018-Jun-15 11:30N 29°60' W 093°13'0 0.0
2018-Jun-15 10:57N 29°60' W 093°13'0 0.0
2018-Jun-15 10:29N 29°60' W 093°13'0 0.0
2018-Jun-15 10:00N 29°60' W 093°13'0 0.0
2018-Jun-15 09:30N 29°60' W 093°13'0 0.0
2018-Jun-15 09:00N 29°60' W 093°13'0 0.0
2018-Jun-15 08:30N 29°60' W 093°13'0 0.1
2018-Jun-15 08:00N 29°60' W 093°13'1 1.9
2018-Jun-15 07:30N 29°59' W 093°12'0 0.3
2018-Jun-15 07:00N 29°59' W 093°12'0 0.0
2018-Jun-15 06:30N 29°59' W 093°12'0 0.0
2018-Jun-15 06:00N 29°59' W 093°12'0 0.0
2018-Jun-15 05:30N 29°59' W 093°12'0 0.0
2018-Jun-15 05:00N 29°59' W 093°12'1 1.3
2018-Jun-15 04:30N 29°58' W 093°12'0 0.0
2018-Jun-15 04:00N 29°58' W 093°12'0 0.2
2018-Jun-15 03:30N 29°59' W 093°12'0 0.0
2018-Jun-15 03:00N 29°59' W 093°12'0 0.0
2018-Jun-15 02:30N 29°59' W 093°12'0 0.0
2018-Jun-15 02:00N 29°59' W 093°12'0 0.0
2018-Jun-15 01:29N 29°59' W 093°12'0 0.0
2018-Jun-15 01:00N 29°59' W 093°12'0 0.1
2018-Jun-15 00:30N 29°59' W 093°12'0 0.0
2018-Jun-15 00:00N 29°59' W 093°12'0 0.0
2018-Jun-14 23:30N 29°59' W 093°12'0 0.0
2018-Jun-14 22:58N 29°59' W 093°12'0 0.0
2018-Jun-14 22:30N 29°59' W 093°12'0 0.0
2018-Jun-14 22:00N 29°59' W 093°12'0 0.0
2018-Jun-14 21:26N 29°59' W 093°12'0 0.0
2018-Jun-14 20:56N 29°59' W 093°12'0 0.3
2018-Jun-14 20:26N 29°59' W 093°12'0 0.0
2018-Jun-14 19:59N 29°59' W 093°12'0 0.0
2018-Jun-14 19:30N 29°59' W 093°12'0 0.0
2018-Jun-14 19:00N 29°59' W 093°12'0 0.1
2018-Jun-14 18:30N 29°59' W 093°12'0 0.0
2018-Jun-14 18:00N 29°59' W 093°12'0 0.0
2018-Jun-14 17:30N 29°59' W 093°12'0 0.0
2018-Jun-14 17:00N 29°59' W 093°12'0 0.1
2018-Jun-14 16:30N 29°59' W 093°12'0 0.0
2018-Jun-14 15:59N 29°59' W 093°12'0 0.1
2018-Jun-14 15:30N 29°59' W 093°12'0 0.0
2018-Jun-14 15:00N 29°59' W 093°12'0 0.0
2018-Jun-14 14:30N 29°59' W 093°12'0 0.1
2018-Jun-14 14:00N 29°59' W 093°12'0 0.1
2018-Jun-14 13:30N 29°58' W 093°12'0 0.0
2018-Jun-14 13:00N 29°58' W 093°12'0 0.0
2018-Jun-14 12:30N 29°58' W 093°12'0 0.0
2018-Jun-14 12:00N 29°58' W 093°12'0 0.0
2018-Jun-14 11:30N 29°58' W 093°12'1 2.1
2018-Jun-14 11:00N 29°58' W 093°11'2 4.8
2018-Jun-14 10:30N 29°56' W 093°09'3 5.0
2018-Jun-14 10:00N 29°56' W 093°06'2 3.9
2018-Jun-14 09:30N 29°56' W 093°04'1 2.4
2018-Jun-14 09:00N 29°56' W 093°02'0 0.1
2018-Jun-14 08:30N 29°56' W 093°02'0 0.0
2018-Jun-14 08:00N 29°56' W 093°02'0 0.0
2018-Jun-14 07:29N 29°56' W 093°02'0 0.0
2018-Jun-14 07:00N 29°56' W 093°02'0 0.0
2018-Jun-14 06:24N 29°56' W 093°02'0 0.1
2018-Jun-14 05:58N 29°56' W 093°02'30 4.9
2018-Jun-13 23:52N 29°54' W 092°28'3 5.5
2018-Jun-13 23:25N 29°53' W 092°25'2 4.6
2018-Jun-13 23:00N 29°52' W 092°23'2 4.6
2018-Jun-13 22:30N 29°51' W 092°21'1 1.4
2018-Jun-13 22:00N 29°51' W 092°20'2 3.1
2018-Jun-13 21:30N 29°50' W 092°18'2 4.0
2018-Jun-13 21:00N 29°49' W 092°17'3 5.8
2018-Jun-13 20:30N 29°48' W 092°14'1 2.9
2018-Jun-13 20:00N 29°47' W 092°12'1 2.2
2018-Jun-13 19:30N 29°47' W 092°11'0 0.0
2018-Jun-13 18:59N 29°47' W 092°11'0 0.0
2018-Jun-13 18:30N 29°47' W 092°11'0 0.1
2018-Jun-13 17:57N 29°47' W 092°11'1 1.4
2018-Jun-13 17:30N 29°47' W 092°10'3 5.7
2018-Jun-13 17:00N 29°47' W 092°07'3 5.7
2018-Jun-13 16:30N 29°48' W 092°04'3 5.9
2018-Jun-13 16:00N 29°49' W 092°01'3 6.2
2018-Jun-13 15:30N 29°50' W 091°57'52 4.7
2018-Jun-13 04:24N 29°37' W 090°60'2 5.9
2018-Jun-13 04:00N 29°35' W 090°58'3 6.3
2018-Jun-13 03:30N 29°33' W 090°55'3 6.5
2018-Jun-13 03:00N 29°32' W 090°52'3 6.3
2018-Jun-13 02:30N 29°32' W 090°48'3 5.4
2018-Jun-13 02:00N 29°33' W 090°45'2 4.7
2018-Jun-13 01:30N 29°34' W 090°43'2 4.3
2018-Jun-13 01:00N 29°36' W 090°43'2 3.6
2018-Jun-13 00:30N 29°36' W 090°40'3 5.0
2018-Jun-13 00:00N 29°35' W 090°38'2 4.4
2018-Jun-12 23:30N 29°35' W 090°35'3 5.5
2018-Jun-12 23:00N 29°34' W 090°32'4 5.3
2018-Jun-12 22:19N 29°33' W 090°28'2 5.6
2018-Jun-12 22:00N 29°33' W 090°26'  
Track history (hours):
 
Tides and Currents Weather Stations Pressure Air Temp Water Temp Dewpoint Dewpoint Depression Visibility Wind Speed Wind Dir Waves Ship Positions

Llano

Owner: Kirby Inland Marine LP, Houton, TX. More information available from US FCC via Universal Licensing System and Coast Guard Vessel Documentation Center.

Last reported at 2018-Jun-16 22:43 UTC. Time now 2018-Jun-18 22:39 UTC.
Position N 29°42' W 095°01'.

Length 210 m; draft 3.5 m.

Type: . MMSI: 367506740.

Date/timePositionNaut miles runAvg speedWind from/ knotsBaromVisibWave heightAir tempDewpointWater temp
2018-Jun-16 22:43N 29°42' W 095°01'1 4.3
2018-Jun-16 22:26N 29°42' W 094°60'4 8.6
2018-Jun-16 21:59N 29°38' W 094°58'17 9.2
2018-Jun-16 20:07N 29°23' W 094°49'1 8.5
2018-Jun-16 20:00N 29°22' W 094°48'2 3.3
2018-Jun-16 19:23N 29°23' W 094°46'1 2.4
2018-Jun-16 18:52N 29°24' W 094°45'15 5.5
2018-Jun-16 16:07N 29°31' W 094°29'2 5.5
2018-Jun-16 15:40N 29°33' W 094°28'1 4.8
2018-Jun-16 15:29N 29°34' W 094°27'2 4.0
2018-Jun-16 15:00N 29°35' W 094°25'2 3.5
2018-Jun-16 14:30N 29°36' W 094°23'2 3.0
2018-Jun-16 13:58N 29°36' W 094°22'1 3.0
2018-Jun-16 13:30N 29°37' W 094°20'3 5.6
2018-Jun-16 13:00N 29°38' W 094°17'3 5.9
2018-Jun-16 12:30N 29°40' W 094°14'3 6.2
2018-Jun-16 12:00N 29°41' W 094°11'3 6.3
2018-Jun-16 11:30N 29°42' W 094°08'3 6.5
2018-Jun-16 11:00N 29°45' W 094°05'4 7.0
2018-Jun-16 10:30N 29°47' W 094°02'3 6.5
2018-Jun-16 10:00N 29°49' W 093°59'2 4.9
2018-Jun-16 09:30N 29°51' W 093°57'4 7.6
2018-Jun-16 08:59N 29°54' W 093°54'5 9.5
2018-Jun-16 08:30N 29°58' W 093°51'3 6.0
2018-Jun-16 08:00N 29°59' W 093°48'4 8.7
2018-Jun-16 07:30N 30°02' W 093°44'4 7.4
2018-Jun-16 07:00N 30°04' W 093°41'4 7.2
2018-Jun-16 06:30N 30°04' W 093°37'3 5.8
2018-Jun-16 06:00N 30°04' W 093°33'3 5.6
2018-Jun-16 05:30N 30°04' W 093°30'3 5.7
2018-Jun-16 04:59N 30°04' W 093°27'2 5.0
2018-Jun-16 04:30N 30°04' W 093°24'2 3.0
2018-Jun-16 04:00N 30°04' W 093°22'2 3.4
2018-Jun-16 03:30N 30°04' W 093°20'2 3.9
2018-Jun-16 03:00N 30°06' W 093°19'1 2.9
2018-Jun-16 02:30N 30°05' W 093°18'1 1.9
2018-Jun-16 02:00N 30°05' W 093°17'0 0.9
2018-Jun-16 01:30N 30°04' W 093°16'1 1.2
2018-Jun-16 01:00N 30°04' W 093°16'0 0.2
2018-Jun-16 00:30N 30°04' W 093°16'0 0.1
2018-Jun-15 23:59N 30°04' W 093°16'0 0.1
2018-Jun-15 23:30N 30°04' W 093°16'0 0.0
2018-Jun-15 23:00N 30°04' W 093°16'0 0.4
2018-Jun-15 22:30N 30°03' W 093°16'0 1.0
2018-Jun-15 22:00N 30°03' W 093°16'0 0.1
2018-Jun-15 21:30N 30°03' W 093°16'0 0.1
2018-Jun-15 21:00N 30°03' W 093°16'0 0.2
2018-Jun-15 20:30N 30°03' W 093°16'0 0.0
2018-Jun-15 20:00N 30°03' W 093°16'0 0.0
2018-Jun-15 19:30N 30°03' W 093°16'0 0.0
2018-Jun-15 19:00N 30°03' W 093°16'0 0.1
2018-Jun-15 18:30N 30°03' W 093°16'0 0.0
2018-Jun-15 18:00N 30°03' W 093°16'0 0.0
2018-Jun-15 17:30N 30°03' W 093°16'0 0.0
2018-Jun-15 17:00N 30°03' W 093°16'0 0.0
2018-Jun-15 16:29N 30°03' W 093°16'0 0.0
2018-Jun-15 16:00N 30°03' W 093°16'0 0.0
2018-Jun-15 15:30N 30°03' W 093°16'0 0.2
2018-Jun-15 15:00N 30°03' W 093°16'2 3.2
2018-Jun-15 14:30N 30°02' W 093°14'2 4.3
2018-Jun-15 14:00N 29°60' W 093°13'0 0.1
2018-Jun-15 13:30N 29°60' W 093°13'0 0.0
2018-Jun-15 13:00N 29°60' W 093°13'0 0.0
2018-Jun-15 12:30N 29°60' W 093°13'0 0.0
2018-Jun-15 11:59N 29°60' W 093°13'0 0.0
2018-Jun-15 11:30N 29°60' W 093°13'0 0.0
2018-Jun-15 10:57N 29°60' W 093°13'0 0.0
2018-Jun-15 10:29N 29°60' W 093°13'0 0.0
2018-Jun-15 10:00N 29°60' W 093°13'0 0.0
2018-Jun-15 09:30N 29°60' W 093°13'0 0.0
2018-Jun-15 09:00N 29°60' W 093°13'0 0.0
2018-Jun-15 08:30N 29°60' W 093°13'0 0.1
2018-Jun-15 08:00N 29°60' W 093°13'1 1.9
2018-Jun-15 07:30N 29°59' W 093°12'0 0.3
2018-Jun-15 07:00N 29°59' W 093°12'0 0.0
2018-Jun-15 06:30N 29°59' W 093°12'0 0.0
2018-Jun-15 06:00N 29°59' W 093°12'0 0.0
2018-Jun-15 05:30N 29°59' W 093°12'0 0.0
2018-Jun-15 05:00N 29°59' W 093°12'1 1.3
2018-Jun-15 04:30N 29°58' W 093°12'0 0.0
2018-Jun-15 04:00N 29°58' W 093°12'0 0.2
2018-Jun-15 03:30N 29°59' W 093°12'0 0.0
2018-Jun-15 03:00N 29°59' W 093°12'0 0.0
2018-Jun-15 02:30N 29°59' W 093°12'0 0.0
2018-Jun-15 02:00N 29°59' W 093°12'0 0.0
2018-Jun-15 01:29N 29°59' W 093°12'0 0.0
2018-Jun-15 01:00N 29°59' W 093°12'0 0.1
2018-Jun-15 00:30N 29°59' W 093°12'0 0.0
2018-Jun-15 00:00N 29°59' W 093°12'0 0.0
2018-Jun-14 23:30N 29°59' W 093°12'0 0.0
2018-Jun-14 22:58N 29°59' W 093°12'0 0.0
2018-Jun-14 22:30N 29°59' W 093°12'0 0.0
2018-Jun-14 22:00N 29°59' W 093°12'0 0.0
2018-Jun-14 21:26N 29°59' W 093°12'0 0.0
2018-Jun-14 20:56N 29°59' W 093°12'0 0.3
2018-Jun-14 20:26N 29°59' W 093°12'0 0.0
2018-Jun-14 19:59N 29°59' W 093°12'0 0.0
2018-Jun-14 19:30N 29°59' W 093°12'0 0.0
2018-Jun-14 19:00N 29°59' W 093°12'0 0.1
2018-Jun-14 18:30N 29°59' W 093°12'0 0.0
2018-Jun-14 18:00N 29°59' W 093°12'0 0.0
2018-Jun-14 17:30N 29°59' W 093°12'0 0.0
2018-Jun-14 17:00N 29°59' W 093°12'0 0.1
2018-Jun-14 16:30N 29°59' W 093°12'0 0.0
2018-Jun-14 15:59N 29°59' W 093°12'0 0.1
2018-Jun-14 15:30N 29°59' W 093°12'0 0.0
2018-Jun-14 15:00N 29°59' W 093°12'0 0.0
2018-Jun-14 14:30N 29°59' W 093°12'0 0.1
2018-Jun-14 14:00N 29°59' W 093°12'0 0.1
2018-Jun-14 13:30N 29°58' W 093°12'0 0.0
2018-Jun-14 13:00N 29°58' W 093°12'0 0.0
2018-Jun-14 12:30N 29°58' W 093°12'0 0.0
2018-Jun-14 12:00N 29°58' W 093°12'0 0.0
2018-Jun-14 11:30N 29°58' W 093°12'1 2.1
2018-Jun-14 11:00N 29°58' W 093°11'2 4.8
2018-Jun-14 10:30N 29°56' W 093°09'3 5.0
2018-Jun-14 10:00N 29°56' W 093°06'2 3.9
2018-Jun-14 09:30N 29°56' W 093°04'1 2.4
2018-Jun-14 09:00N 29°56' W 093°02'0 0.1
2018-Jun-14 08:30N 29°56' W 093°02'0 0.0
2018-Jun-14 08:00N 29°56' W 093°02'0 0.0
2018-Jun-14 07:29N 29°56' W 093°02'0 0.0
2018-Jun-14 07:00N 29°56' W 093°02'0 0.0
2018-Jun-14 06:24N 29°56' W 093°02'0 0.1
2018-Jun-14 05:58N 29°56' W 093°02'30 4.9
2018-Jun-13 23:52N 29°54' W 092°28'3 5.5
2018-Jun-13 23:25N 29°53' W 092°25'2 4.6
2018-Jun-13 23:00N 29°52' W 092°23'2 4.6
2018-Jun-13 22:30N 29°51' W 092°21'1 1.4
2018-Jun-13 22:00N 29°51' W 092°20'2 3.1
2018-Jun-13 21:30N 29°50' W 092°18'2 4.0
2018-Jun-13 21:00N 29°49' W 092°17'3 5.8
2018-Jun-13 20:30N 29°48' W 092°14'1 2.9
2018-Jun-13 20:00N 29°47' W 092°12'1 2.2
2018-Jun-13 19:30N 29°47' W 092°11'0 0.0
2018-Jun-13 18:59N 29°47' W 092°11'0 0.0
2018-Jun-13 18:30N 29°47' W 092°11'0 0.1
2018-Jun-13 17:57N 29°47' W 092°11'1 1.4
2018-Jun-13 17:30N 29°47' W 092°10'3 5.7
2018-Jun-13 17:00N 29°47' W 092°07'3 5.7
2018-Jun-13 16:30N 29°48' W 092°04'3 5.9
2018-Jun-13 16:00N 29°49' W 092°01'3 6.2
2018-Jun-13 15:30N 29°50' W 091°57'52 4.7
2018-Jun-13 04:24N 29°37' W 090°60'2 5.9
2018-Jun-13 04:00N 29°35' W 090°58'3 6.3
2018-Jun-13 03:30N 29°33' W 090°55'3 6.5
2018-Jun-13 03:00N 29°32' W 090°52'3 6.3
2018-Jun-13 02:30N 29°32' W 090°48'3 5.4
2018-Jun-13 02:00N 29°33' W 090°45'2 4.7
2018-Jun-13 01:30N 29°34' W 090°43'2 4.3
2018-Jun-13 01:00N 29°36' W 090°43'2 3.6
2018-Jun-13 00:30N 29°36' W 090°40'3 5.0
2018-Jun-13 00:00N 29°35' W 090°38'2 4.4
2018-Jun-12 23:30N 29°35' W 090°35'3 5.5
2018-Jun-12 23:00N 29°34' W 090°32'4 5.3
2018-Jun-12 22:19N 29°33' W 090°28'2 5.6
2018-Jun-12 22:00N 29°33' W 090°26'  

Dump ship's entire track history